createdAt,value
2017-10-19T00:01:44.130Z,53.22
2017-10-19T00:04:11.559Z,52.20
2017-10-19T00:06:38.984Z,48.53
2017-10-19T00:09:06.408Z,46.93
2017-10-19T00:11:33.849Z,47.00
2017-10-19T00:14:01.266Z,48.77
2017-10-19T00:16:29.450Z,46.17
2017-10-19T00:18:57.643Z,51.80
2017-10-19T00:21:25.075Z,48.60
2017-10-19T00:23:53.263Z,48.13
2017-10-19T00:26:21.440Z,47.60
2017-10-19T00:28:48.873Z,48.27
2017-10-19T00:31:17.075Z,47.50
2017-10-19T00:33:44.495Z,50.40
2017-10-19T00:36:11.915Z,48.33
2017-10-19T00:38:39.339Z,48.15
2017-10-19T00:41:06.762Z,48.07
2017-10-19T00:43:34.948Z,48.50
2017-10-19T00:46:02.379Z,50.30
2017-10-19T00:48:29.803Z,51.00
2017-10-19T00:50:57.215Z,51.37
2017-10-19T00:53:25.399Z,47.60
2017-10-19T00:55:53.583Z,47.57
2017-10-19T00:58:21.003Z,44.80
2017-10-19T01:00:48.438Z,45.23
2017-10-19T01:03:15.871Z,45.27
2017-10-19T01:05:43.304Z,44.80
2017-10-19T01:08:10.727Z,46.90
2017-10-19T01:10:38.156Z,45.87
2017-10-19T01:13:05.558Z,45.37
2017-10-19T01:15:33.743Z,45.17
2017-10-19T01:18:01.163Z,45.97
2017-10-19T01:20:28.583Z,45.90
2017-10-19T01:22:56.019Z,44.90
2017-10-19T01:25:23.436Z,46.50
2017-10-19T01:27:50.958Z,45.57
2017-10-19T01:30:18.406Z,45.30
2017-10-19T01:32:45.831Z,43.40
2017-10-19T01:35:14.944Z,45.30
2017-10-19T01:37:42.351Z,43.40
2017-10-19T01:40:09.768Z,43.10
2017-10-19T01:42:37.194Z,42.23
2017-10-19T01:45:05.390Z,42.30
2017-10-19T01:47:32.807Z,39.20
2017-10-19T01:50:01.003Z,40.08
2017-10-19T01:52:28.428Z,40.27
2017-10-19T01:54:55.855Z,39.53
2017-10-19T01:57:23.271Z,39.73
2017-10-19T01:59:50.691Z,38.80
2017-10-19T02:02:18.113Z,39.90
2017-10-19T02:04:45.532Z,39.70
2017-10-19T02:07:12.954Z,40.70
2017-10-19T02:09:41.199Z,42.70
2017-10-19T02:12:08.631Z,42.83
2017-10-19T02:14:36.047Z,43.53
2017-10-19T02:17:04.236Z,45.17
2017-10-19T02:19:32.452Z,42.83
2017-10-19T02:21:59.873Z,43.17
2017-10-19T02:24:28.056Z,43.70
2017-10-19T02:26:55.488Z,46.57
2017-10-19T02:29:22.903Z,44.23
2017-10-19T02:31:50.338Z,42.00
2017-10-19T02:34:17.753Z,41.10
2017-10-19T02:36:46.099Z,39.43
2017-10-19T02:39:13.523Z,39.80
2017-10-19T02:41:40.943Z,38.17
2017-10-19T02:44:08.371Z,38.37
2017-10-19T02:46:35.779Z,39.03
2017-10-19T02:49:03.978Z,37.17
2017-10-19T02:51:31.392Z,37.37
2017-10-19T02:53:59.578Z,36.40
2017-10-19T02:56:27.762Z,34.60
2017-10-19T02:58:55.171Z,33.43
2017-10-19T03:01:22.594Z,34.30
2017-10-19T03:03:50.013Z,33.20
2017-10-19T03:06:18.200Z,34.33
2017-10-19T03:08:47.182Z,32.58
2017-10-19T03:11:15.376Z,32.80
2017-10-19T03:13:42.798Z,32.57
2017-10-19T03:16:10.990Z,32.10
2017-10-19T03:18:39.183Z,32.40
2017-10-19T03:21:06.618Z,30.87
2017-10-19T03:23:34.858Z,32.20
2017-10-19T03:26:02.287Z,31.57
2017-10-19T03:28:29.711Z,32.60
2017-10-19T03:30:57.149Z,32.20
2017-10-19T03:33:25.331Z,31.83
2017-10-19T03:35:53.515Z,31.10
2017-10-19T03:38:20.956Z,31.53
2017-10-19T03:40:48.654Z,32.30
2017-10-19T03:43:16.971Z,30.30
2017-10-19T03:45:46.834Z,30.80
2017-10-19T03:48:14.251Z,31.10
2017-10-19T03:50:43.171Z,32.50
2017-10-19T03:53:10.649Z,32.77
2017-10-19T03:55:38.063Z,31.90
2017-10-19T03:58:06.245Z,32.10
2017-10-19T04:00:35.351Z,32.23
2017-10-19T04:03:02.771Z,31.77
2017-10-19T04:05:31.691Z,32.47
2017-10-19T04:07:59.879Z,31.73
2017-10-19T04:10:27.295Z,32.47
2017-10-19T04:12:54.886Z,32.50
2017-10-19T04:15:22.315Z,33.17
2017-10-19T04:17:49.746Z,32.13
2017-10-19T04:20:18.374Z,32.38
2017-10-19T04:22:47.496Z,32.60
2017-10-19T04:25:14.903Z,32.57
2017-10-19T04:27:42.323Z,32.63
2017-10-19T04:30:09.748Z,33.40
2017-10-19T04:32:37.171Z,33.73
2017-10-19T04:35:04.591Z,33.07
2017-10-19T04:37:32.042Z,31.20
2017-10-19T04:39:59.544Z,31.23
2017-10-19T04:42:26.969Z,33.27
2017-10-19T04:44:54.383Z,32.43
2017-10-19T04:47:21.811Z,33.10
2017-10-19T04:49:49.224Z,32.30
2017-10-19T04:52:16.634Z,33.03
2017-10-19T04:54:44.827Z,32.00
2017-10-19T04:57:12.240Z,32.73
2017-10-19T04:59:39.662Z,31.90
2017-10-19T05:02:07.083Z,32.47
2017-10-19T05:04:35.295Z,32.50
2017-10-19T05:07:02.702Z,31.67
2017-10-19T05:09:30.895Z,33.57
2017-10-19T05:11:58.320Z,32.17
2017-10-19T05:14:26.037Z,32.73
2017-10-19T05:16:53.455Z,33.40
2017-10-19T05:19:21.696Z,32.47
2017-10-19T05:21:49.103Z,32.57
2017-10-19T05:24:17.286Z,32.40
2017-10-19T05:26:44.699Z,34.10
2017-10-19T05:29:12.140Z,34.60
2017-10-19T05:31:39.554Z,35.90
2017-10-19T05:34:07.019Z,35.17
2017-10-19T05:36:34.441Z,34.43
2017-10-19T05:39:02.622Z,33.17
2017-10-19T05:41:30.799Z,34.57
2017-10-19T05:43:58.230Z,34.97
2017-10-19T05:46:25.660Z,34.17
2017-10-19T05:48:53.083Z,34.63
2017-10-19T05:51:20.503Z,34.53
2017-10-19T05:53:49.611Z,34.20
2017-10-19T05:56:17.795Z,33.80
2017-10-19T05:58:45.210Z,34.37
2017-10-19T06:01:12.628Z,34.10
2017-10-19T06:03:40.050Z,35.83
2017-10-19T06:06:08.235Z,36.80
2017-10-19T06:08:35.667Z,34.50
2017-10-19T06:11:03.190Z,34.10
2017-10-19T06:13:30.592Z,34.33
2017-10-19T06:15:58.027Z,35.20
2017-10-19T06:18:25.765Z,32.53
2017-10-19T06:20:53.190Z,33.90
2017-10-19T06:23:20.607Z,33.63
2017-10-19T06:25:48.037Z,33.87
2017-10-19T06:28:15.444Z,35.57
2017-10-19T06:30:42.927Z,35.80
2017-10-19T06:33:10.334Z,34.80
2017-10-19T06:35:37.758Z,35.63
2017-10-19T06:38:05.170Z,35.77
2017-10-19T06:40:32.595Z,36.73
2017-10-19T06:43:00.027Z,36.00
2017-10-19T06:45:27.511Z,35.47
2017-10-19T06:47:54.930Z,35.40
2017-10-19T06:50:22.383Z,34.90
2017-10-19T06:52:50.846Z,35.58
2017-10-19T06:55:18.266Z,35.50
2017-10-19T06:57:45.675Z,35.90
2017-10-19T07:00:13.091Z,34.80
2017-10-19T07:02:41.272Z,33.67
2017-10-19T07:05:08.687Z,34.90
2017-10-19T07:07:36.112Z,34.93
2017-10-19T07:10:03.539Z,35.17
2017-10-19T07:12:30.974Z,35.53
2017-10-19T07:14:58.375Z,35.43
2017-10-19T07:17:25.819Z,34.90
2017-10-19T07:19:53.248Z,36.13
2017-10-19T07:22:21.463Z,37.57
2017-10-19T07:24:48.872Z,34.80
2017-10-19T07:27:16.277Z,36.80
2017-10-19T07:29:43.690Z,34.70
2017-10-19T07:32:11.884Z,35.27
2017-10-19T07:34:39.324Z,35.70
2017-10-19T07:37:07.516Z,34.53
2017-10-19T07:39:34.936Z,33.57
2017-10-19T07:42:02.371Z,36.07
2017-10-19T07:44:29.791Z,35.23
2017-10-19T07:46:57.217Z,35.60
2017-10-19T07:49:25.392Z,37.17
2017-10-19T07:51:53.587Z,36.60
2017-10-19T07:54:21.024Z,35.70
2017-10-19T07:56:48.442Z,35.10
2017-10-19T07:59:15.858Z,35.80
2017-10-19T08:01:43.288Z,35.63
2017-10-19T08:04:11.470Z,34.77
2017-10-19T08:06:39.658Z,34.40
2017-10-19T08:09:07.088Z,34.60
2017-10-19T08:11:35.286Z,35.43
2017-10-19T08:14:02.725Z,33.17
2017-10-19T08:16:30.129Z,34.87
2017-10-19T08:18:57.547Z,37.10
2017-10-19T08:21:24.981Z,34.00
2017-10-19T08:23:53.181Z,31.63
2017-10-19T08:26:21.547Z,33.20
2017-10-19T08:28:49.730Z,32.73
2017-10-19T08:31:17.160Z,33.07
2017-10-19T08:33:45.359Z,33.67
2017-10-19T08:36:13.540Z,32.10
2017-10-19T08:38:40.959Z,32.33
2017-10-19T08:41:08.383Z,32.38
2017-10-19T08:43:35.803Z,33.73
2017-10-19T08:46:03.214Z,32.70
2017-10-19T08:48:30.634Z,31.33
2017-10-19T08:50:58.075Z,32.50
2017-10-19T08:53:25.507Z,32.03
2017-10-19T08:55:53.696Z,31.40
2017-10-19T08:58:22.803Z,30.90
2017-10-19T09:00:51.075Z,32.70
2017-10-19T09:03:18.495Z,33.30
2017-10-19T09:05:45.911Z,32.80
2017-10-19T09:08:13.342Z,31.13
2017-10-19T09:10:40.818Z,31.70
2017-10-19T09:13:08.254Z,30.60
2017-10-19T09:15:35.677Z,30.27
2017-10-19T09:18:03.086Z,31.20
2017-10-19T09:20:30.499Z,30.87
2017-10-19T09:22:58.698Z,30.30
2017-10-19T09:25:26.666Z,30.73
2017-10-19T09:27:54.090Z,30.47
2017-10-19T09:30:22.443Z,30.43
2017-10-19T09:32:49.858Z,30.93
2017-10-19T09:35:17.308Z,30.27
2017-10-19T09:37:45.521Z,29.07
2017-10-19T09:40:12.948Z,29.10
2017-10-19T09:42:40.377Z,29.00
2017-10-19T09:45:08.573Z,32.00
2017-10-19T09:47:35.974Z,29.17
2017-10-19T09:50:03.408Z,30.67
2017-10-19T09:52:30.841Z,30.77
2017-10-19T09:54:58.268Z,29.20
2017-10-19T09:57:26.450Z,30.47
2017-10-19T09:59:54.640Z,30.70
2017-10-19T10:02:23.741Z,30.60
2017-10-19T10:04:51.168Z,30.90
2017-10-19T10:07:19.362Z,29.50
2017-10-19T10:09:46.813Z,29.57
2017-10-19T10:12:14.210Z,28.23
2017-10-19T10:14:41.640Z,29.63
2017-10-19T10:17:09.052Z,29.63
2017-10-19T10:19:36.466Z,28.43
2017-10-19T10:22:03.880Z,31.40
2017-10-19T10:24:32.083Z,28.97
2017-10-19T10:26:59.489Z,30.40
2017-10-19T10:29:26.924Z,29.03
2017-10-19T10:31:54.337Z,28.57
2017-10-19T10:34:21.923Z,27.70
2017-10-19T10:36:49.375Z,30.30
2017-10-19T10:39:16.802Z,29.27
2017-10-19T10:41:44.979Z,28.37
2017-10-19T10:44:13.173Z,30.70
2017-10-19T10:46:40.659Z,28.33
2017-10-19T10:49:08.090Z,29.05
2017-10-19T10:51:35.502Z,29.17
2017-10-19T10:54:03.688Z,28.33
2017-10-19T10:56:31.892Z,28.53
2017-10-19T10:58:59.304Z,29.37
2017-10-19T11:01:27.527Z,28.47
2017-10-19T11:03:55.442Z,29.50
2017-10-19T11:06:22.968Z,28.10
2017-10-19T11:08:50.370Z,28.37
2017-10-19T11:11:18.597Z,26.50
2017-10-19T11:13:46.002Z,27.90
2017-10-19T11:16:14.248Z,27.13
2017-10-19T11:18:41.640Z,26.33
2017-10-19T11:21:09.065Z,26.30
2017-10-19T11:23:36.483Z,25.97
2017-10-19T11:26:03.907Z,25.90
2017-10-19T11:28:32.083Z,24.37
2017-10-19T11:31:00.010Z,24.93
2017-10-19T11:33:27.438Z,26.40
2017-10-19T11:35:54.866Z,24.33
2017-10-19T11:38:22.354Z,24.07
2017-10-19T11:40:49.775Z,25.10
2017-10-19T11:43:17.204Z,25.40
2017-10-19T11:45:44.626Z,22.83
2017-10-19T11:48:12.673Z,22.90
2017-10-19T11:50:40.086Z,23.10
2017-10-19T11:53:07.597Z,20.53
2017-10-19T11:55:35.027Z,21.20
2017-10-19T11:58:03.958Z,21.60
2017-10-19T12:00:31.379Z,20.60
2017-10-19T12:02:58.800Z,18.80
2017-10-19T12:05:26.207Z,21.40
2017-10-19T12:07:53.626Z,18.33
2017-10-19T12:10:21.802Z,19.70
2017-10-19T12:12:49.979Z,18.27
2017-10-19T12:15:18.150Z,18.23
2017-10-19T12:17:46.433Z,17.50
2017-10-19T12:20:13.828Z,17.50
2017-10-19T12:22:41.386Z,17.30
2017-10-19T12:25:08.788Z,16.23
2017-10-19T12:27:36.986Z,16.40
2017-10-19T12:30:04.406Z,17.00
2017-10-19T12:32:31.843Z,14.77
2017-10-19T12:34:59.370Z,15.13
2017-10-19T12:37:26.808Z,17.10
2017-10-19T12:39:56.444Z,14.53
2017-10-19T12:42:23.864Z,13.77
2017-10-19T12:44:52.064Z,13.90
2017-10-19T12:47:19.546Z,14.20
2017-10-19T12:49:47.709Z,12.67
2017-10-19T12:52:15.173Z,13.17
2017-10-19T12:54:42.719Z,12.93
2017-10-19T12:57:10.123Z,13.50
2017-10-19T12:59:37.637Z,12.77
2017-10-19T13:02:05.100Z,13.10
2017-10-19T13:04:32.512Z,12.60
2017-10-19T13:06:59.927Z,13.60
2017-10-19T13:09:27.359Z,12.50
2017-10-19T13:11:54.784Z,11.50
2017-10-19T13:14:22.958Z,10.60
2017-10-19T13:16:50.390Z,9.80
2017-10-19T13:19:17.887Z,10.97
2017-10-19T13:21:45.984Z,9.53
2017-10-19T13:24:13.444Z,9.00
2017-10-19T13:26:40.985Z,9.63
2017-10-19T13:29:08.411Z,9.10
2017-10-19T13:31:36.594Z,8.30
2017-10-19T13:34:04.023Z,8.97
2017-10-19T13:36:32.247Z,9.20
2017-10-19T13:38:59.971Z,9.03
2017-10-19T13:41:28.187Z,9.27
2017-10-19T13:43:55.612Z,8.70
2017-10-19T13:46:23.027Z,8.70
2017-10-19T13:48:50.551Z,8.60
2017-10-19T13:51:18.018Z,9.10
2017-10-19T13:53:45.723Z,7.53
2017-10-19T13:56:13.130Z,9.00
2017-10-19T13:58:40.580Z,7.93
2017-10-19T14:01:08.044Z,8.43
2017-10-19T14:03:35.471Z,8.60
2017-10-19T14:06:02.893Z,9.47
2017-10-19T14:08:30.304Z,9.20
2017-10-19T14:10:57.759Z,8.70
2017-10-19T14:13:25.162Z,8.90
2017-10-19T14:15:52.587Z,9.00
2017-10-19T14:18:20.032Z,10.30
2017-10-19T14:20:47.451Z,9.90
2017-10-19T14:23:15.656Z,10.40
2017-10-19T14:25:43.071Z,10.13
2017-10-19T14:28:11.296Z,9.53
2017-10-19T14:30:38.735Z,11.27
2017-10-19T14:33:06.142Z,9.87
2017-10-19T14:35:33.567Z,10.73
2017-10-19T14:38:00.985Z,10.60
2017-10-19T14:40:28.415Z,11.10
2017-10-19T14:42:56.654Z,9.70
2017-10-19T14:45:24.099Z,11.47
2017-10-19T14:47:51.498Z,10.93
2017-10-19T14:50:18.912Z,12.07
2017-10-19T14:52:46.382Z,10.13
2017-10-19T14:55:13.803Z,11.53
2017-10-19T14:57:41.975Z,10.67
2017-10-19T15:00:09.422Z,10.53
2017-10-19T15:02:37.593Z,11.50
2017-10-19T15:05:05.775Z,9.70
2017-10-19T15:07:33.587Z,11.30
2017-10-19T15:10:01.015Z,11.20
2017-10-19T15:12:29.391Z,12.17
2017-10-19T15:14:56.842Z,45.87
2017-10-19T15:17:24.276Z,25.10
2017-10-19T15:19:52.439Z,11.20
2017-10-19T15:22:20.630Z,11.40
2017-10-19T15:24:48.829Z,10.17
2017-10-19T15:27:16.431Z,12.47
2017-10-19T15:29:43.858Z,11.50
2017-10-19T15:32:11.308Z,11.77
2017-10-19T15:34:38.710Z,11.60
2017-10-19T15:37:06.219Z,11.17
2017-10-19T15:39:33.683Z,13.07
2017-10-19T15:42:01.088Z,10.50
2017-10-19T15:44:29.893Z,12.07
2017-10-19T15:46:59.017Z,12.57
2017-10-19T15:49:26.427Z,12.23
2017-10-19T15:51:54.607Z,13.73
2017-10-19T15:54:22.787Z,13.60
2017-10-19T15:56:50.212Z,14.37
2017-10-19T15:59:17.629Z,12.37
2017-10-19T16:01:45.332Z,14.03
2017-10-19T16:04:12.758Z,12.90
2017-10-19T16:06:40.167Z,12.70
2017-10-19T16:09:08.350Z,15.30
2017-10-19T16:11:36.533Z,14.53
2017-10-19T16:14:03.946Z,15.43
2017-10-19T16:16:31.409Z,13.03
2017-10-19T16:19:00.559Z,13.53
2017-10-19T16:21:27.976Z,14.63
2017-10-19T16:23:56.167Z,14.87
2017-10-19T16:26:23.596Z,14.60
2017-10-19T16:28:51.820Z,16.40
2017-10-19T16:31:19.239Z,14.37
2017-10-19T16:33:47.463Z,16.70
2017-10-19T16:36:14.895Z,16.43
2017-10-19T16:38:42.317Z,15.83
2017-10-19T16:41:10.501Z,16.40
2017-10-19T16:43:38.727Z,17.17
2017-10-19T16:46:06.152Z,18.27
2017-10-19T16:48:33.576Z,18.90
2017-10-19T16:51:00.990Z,16.70
2017-10-19T16:53:28.411Z,19.80
2017-10-19T16:55:55.843Z,19.60
2017-10-19T16:58:24.068Z,19.83
2017-10-19T17:00:51.511Z,23.47
2017-10-19T17:03:18.927Z,24.77
2017-10-19T17:05:47.121Z,25.27
2017-10-19T17:08:15.377Z,25.03
2017-10-19T17:10:43.582Z,26.37
2017-10-19T17:13:11.052Z,25.23
2017-10-19T17:15:38.473Z,28.63
2017-10-19T17:18:06.659Z,27.80
2017-10-19T17:20:34.071Z,28.30
2017-10-19T17:23:01.487Z,29.70
2017-10-19T17:25:28.916Z,31.17
2017-10-19T17:27:57.110Z,29.20
2017-10-19T17:30:24.525Z,30.50
2017-10-19T17:32:51.968Z,30.60
2017-10-19T17:35:19.396Z,32.83
2017-10-19T17:37:47.812Z,32.10
2017-10-19T17:40:15.334Z,32.87
2017-10-19T17:42:42.756Z,32.27
2017-10-19T17:45:10.927Z,33.00
2017-10-19T17:47:39.148Z,35.30
2017-10-19T17:50:06.579Z,33.63
2017-10-19T17:52:34.009Z,34.40
2017-10-19T17:55:02.287Z,35.58
2017-10-19T17:57:31.418Z,35.07
2017-10-19T17:59:58.835Z,35.67
2017-10-19T18:02:27.022Z,35.10
2017-10-19T18:04:54.499Z,37.97
2017-10-19T18:07:21.987Z,37.27
2017-10-19T18:09:49.399Z,38.60
2017-10-19T18:12:16.823Z,37.53
2017-10-19T18:14:44.224Z,40.67
2017-10-19T18:17:11.647Z,39.43
2017-10-19T18:19:39.856Z,41.43
2017-10-19T18:22:07.279Z,39.73
2017-10-19T18:24:35.495Z,39.77
2017-10-19T18:27:02.906Z,40.53
2017-10-19T18:29:32.759Z,41.53
2017-10-19T18:32:00.179Z,40.63
2017-10-19T18:34:28.556Z,40.67
2017-10-19T18:36:55.985Z,39.50
2017-10-19T18:39:23.404Z,40.17
2017-10-19T18:41:50.859Z,39.23
2017-10-19T18:44:18.300Z,41.23
2017-10-19T18:46:46.470Z,40.57
2017-10-19T18:49:13.917Z,40.43
2017-10-19T18:51:41.307Z,40.87
2017-10-19T18:54:08.729Z,40.73
2017-10-19T18:56:36.902Z,41.13
2017-10-19T18:59:04.318Z,41.07
2017-10-19T19:01:38.598Z,40.25
2017-10-19T19:04:06.103Z,41.37
2017-10-19T19:06:33.593Z,40.00
2017-10-19T19:09:02.713Z,40.30
2017-10-19T19:11:30.152Z,39.93
2017-10-19T19:13:58.354Z,38.93
2017-10-19T19:16:25.797Z,40.73
2017-10-19T19:18:53.273Z,41.97
2017-10-19T19:21:20.745Z,41.63
2017-10-19T19:23:48.275Z,40.93
2017-10-19T19:26:15.702Z,43.27
2017-10-19T19:28:43.147Z,41.90
2017-10-19T19:31:11.374Z,43.33
2017-10-19T19:33:38.804Z,43.30
2017-10-19T19:36:06.242Z,41.80
2017-10-19T19:38:34.419Z,41.63
2017-10-19T19:41:01.832Z,41.03
2017-10-19T19:43:29.247Z,41.37
2017-10-19T19:45:56.662Z,42.90
2017-10-19T19:48:24.075Z,40.33
2017-10-19T19:50:51.491Z,38.70
2017-10-19T19:53:19.739Z,39.53
2017-10-19T19:55:47.183Z,37.47
2017-10-19T19:58:14.634Z,38.50
2017-10-19T20:00:42.058Z,35.70
2017-10-19T20:03:09.484Z,34.47
2017-10-19T20:05:37.659Z,32.03
2017-10-19T20:08:05.842Z,34.67
2017-10-19T20:10:34.439Z,31.60
2017-10-19T20:13:01.890Z,31.07
2017-10-19T20:15:30.059Z,30.90
2017-10-19T20:17:57.483Z,31.23
2017-10-19T20:20:24.906Z,29.60
2017-10-19T20:22:52.382Z,31.33
2017-10-19T20:25:19.792Z,35.47
2017-10-19T20:27:47.208Z,30.03
2017-10-19T20:30:14.668Z,34.03
2017-10-19T20:32:42.851Z,30.63
2017-10-19T20:35:11.034Z,32.40
2017-10-19T20:37:38.446Z,31.00
2017-10-19T20:40:05.868Z,28.10
2017-10-19T20:42:34.207Z,28.53
2017-10-19T20:45:02.512Z,29.70
2017-10-19T20:47:29.933Z,28.53
2017-10-19T20:49:57.369Z,26.63
2017-10-19T20:52:24.768Z,26.57
2017-10-19T20:54:53.017Z,24.67
2017-10-19T20:57:21.940Z,22.53
2017-10-19T20:59:49.357Z,23.23
2017-10-19T21:02:16.797Z,23.33
2017-10-19T21:04:44.255Z,22.00
2017-10-19T21:07:11.656Z,20.87
2017-10-19T21:09:39.907Z,22.00
2017-10-19T21:12:07.366Z,19.87
2017-10-19T21:14:34.797Z,20.90
2017-10-19T21:17:02.775Z,19.73
2017-10-19T21:19:30.191Z,20.00
2017-10-19T21:21:57.681Z,21.10
2017-10-19T21:24:25.124Z,20.60
2017-10-19T21:26:52.531Z,20.90
2017-10-19T21:29:20.711Z,20.90
2017-10-19T21:31:48.900Z,21.07
2017-10-19T21:34:16.400Z,21.27
2017-10-19T21:36:43.842Z,21.00
2017-10-19T21:39:11.252Z,19.73
2017-10-19T21:41:39.434Z,18.63
2017-10-19T21:44:07.602Z,18.90
2017-10-19T21:46:35.962Z,18.85
2017-10-19T21:49:03.395Z,19.00
2017-10-19T21:51:31.602Z,17.90
2017-10-19T21:53:59.787Z,16.90
2017-10-19T21:56:27.971Z,17.70
2017-10-19T21:58:56.151Z,16.53
2017-10-19T22:01:23.558Z,16.67
2017-10-19T22:03:50.990Z,16.97
2017-10-19T22:06:18.411Z,16.73
2017-10-19T22:08:45.837Z,16.90
2017-10-19T22:11:13.344Z,16.83
2017-10-19T22:13:40.758Z,17.77
2017-10-19T22:16:08.944Z,18.10
2017-10-19T22:18:36.365Z,17.40
2017-10-19T22:21:03.779Z,16.93
2017-10-19T22:23:31.203Z,18.47
2017-10-19T22:25:59.390Z,17.83
2017-10-19T22:28:26.805Z,19.00
2017-10-19T22:30:54.219Z,18.40
2017-10-19T22:33:21.635Z,17.77
2017-10-19T22:35:49.826Z,18.23
2017-10-19T22:38:17.248Z,16.70
2017-10-19T22:40:44.660Z,18.30
2017-10-19T22:43:12.082Z,18.57
2017-10-19T22:45:40.263Z,18.50
2017-10-19T22:48:08.447Z,19.97
2017-10-19T22:50:36.818Z,21.02
2017-10-19T22:53:05.637Z,18.90
2017-10-19T22:55:33.047Z,17.10
2017-10-19T22:58:01.235Z,18.00
2017-10-19T23:00:28.671Z,16.80
2017-10-19T23:02:56.092Z,19.00
2017-10-19T23:05:23.513Z,18.03
2017-10-19T23:07:50.935Z,18.20
2017-10-19T23:10:18.354Z,17.80
2017-10-19T23:12:45.774Z,18.60
2017-10-19T23:15:13.192Z,18.10
2017-10-19T23:17:40.611Z,18.50
2017-10-19T23:20:08.031Z,17.53
2017-10-19T23:22:37.161Z,18.37
2017-10-19T23:25:04.581Z,17.90
2017-10-19T23:27:32.775Z,17.60
2017-10-19T23:30:00.202Z,17.60
2017-10-19T23:32:28.389Z,17.33
2017-10-19T23:34:56.580Z,17.53
2017-10-19T23:37:24.003Z,17.40
2017-10-19T23:39:51.419Z,18.60
2017-10-19T23:42:18.841Z,18.30
2017-10-19T23:44:46.335Z,17.77
2017-10-19T23:47:13.750Z,17.77
2017-10-19T23:49:41.228Z,18.10
2017-10-19T23:52:08.659Z,18.67
2017-10-19T23:54:37.769Z,17.83
2017-10-19T23:57:05.193Z,18.30
2017-10-19T23:59:32.611Z,17.70
